Durand, Michigan
Current Conditions -  °F | °C
As of 8:15 AM on Monday 22 Dec 2014 (Local Time) from KRNP Reporting Station
Haze Haze  
Wind Chill: 20°   Ceiling: Unl
Heat Index: 26°   Visibility: 3mi
Dew Point: 25°   Wind: 5mph
Humidity: 96%   Direction: 120°ESE
Pressure: 30.08"   Gusts: NA
Location:  42.91°N, 83.98°W
Report Text: KRNP 221315Z AUTO 12004KT 3SM BR CLR M04/M04 A3008 RMK AO2 T10361041
Loading
Personal Weather Stations






























Interactive Weather Map New forecast layout! Learn more

10-Day Weather Forecast

Advertisements
Track Severe Weather on mobile